Time;durP1;ratioP1;P1;durP2;ratioP2;P2;SDS_P1;SDS_P2;PMS_P1;PMS_P2;Temp;Humidity;BMP_temperature;BMP_pressure;BME280_temperature;BME280_humidity;BME280_pressure;Samples;Min_cycle;Max_cycle;Signal;HPM_P1;HPM_P2
2021/05/27 00:00:00;;;;;;;9.02;8.13;;;;;;;;;;2064577;28;20197;-58
2021/05/27 00:01:01;;;;;;;8.43;7.63;;;;;;;;;;2064738;28;20178;-58
2021/05/27 00:02:01;;;;;;;8.15;7.45;;;;;;;;;;2055925;28;20182;-59
2021/05/27 00:03:02;;;;;;;8.82;7.60;;;;;;;;;;2056240;28;20234;-58
2021/05/27 00:04:02;;;;;;;8.25;7.45;;;;;;;;;;2064620;28;20634;-53
2021/05/27 00:05:06;;;;;;;7.50;7.00;;;;;;;;;;2052823;28;20170;-59
2021/05/27 00:06:06;;;;;;;7.97;7.15;;;;;;;;;;2056005;28;20269;-58
2021/05/27 00:07:06;;;;;;;7.32;6.72;;;;;;;;;;2064760;28;20197;-58
2021/05/27 00:08:07;;;;;;;7.35;6.68;;;;;;;;;;2064738;28;20174;-54
2021/05/27 00:09:07;;;;;;;7.00;6.40;;;;;;;;;;2063462;28;20173;-56
2021/05/27 00:10:08;;;;;;;6.82;6.20;;;;;;;;;;2058458;28;20550;-55
2021/05/27 00:11:08;;;;;;;7.63;6.93;;;;;;;;;;2057528;28;20190;-59
2021/05/27 00:12:09;;;;;;;8.07;7.30;;;;;;;;;;2065344;28;20244;-59
2021/05/27 00:13:09;;;;;;;8.95;6.95;;;;;;;;;;2066653;28;20630;-57
2021/05/27 00:14:10;;;;;;;7.57;6.85;;;;;;;;;;2058251;28;20693;-54
2021/05/27 00:15:11;;;;;;;7.32;6.75;;;;;;;;;;2057356;28;20167;-53
2021/05/27 00:16:11;;;;;;;6.85;6.15;;;;;;;;;;2056160;28;20608;-58
2021/05/27 00:17:11;;;;;;;6.65;6.15;;;;;;;;;;2057320;28;20181;-55
2021/05/27 00:18:12;;;;;;;7.40;6.70;;;;;;;;;;2064674;28;20166;-57
2021/05/27 00:19:12;;;;;;;7.40;6.70;;;;;;;;;;2065447;28;20276;-55
2021/05/27 00:20:13;;;;;;;7.00;6.30;;;;;;;;;;2065382;28;20193;-56
2021/05/27 00:21:13;;;;;;;7.10;6.50;;;;;;;;;;2065933;28;20172;-59
2021/05/27 00:22:13;;;;;;;7.60;6.82;;;;;;;;;;2057274;28;20707;-58
2021/05/27 00:23:13;;;;;;;7.13;6.50;;;;;;;;;;2041579;29;20191;-58
2021/05/27 00:24:14;;;;;;;6.03;5.53;;;;;;;;;;2049337;28;20171;-56
2021/05/27 00:25:14;;;;;;;7.43;6.85;;;;;;;;;;2064920;28;20185;-57
2021/05/27 00:26:14;;;;;;;6.70;6.20;;;;;;;;;;2057350;28;20177;-56
2021/05/27 00:27:16;;;;;;;7.53;6.78;;;;;;;;;;2057996;28;20561;-55
2021/05/27 00:28:16;;;;;;;6.93;6.32;;;;;;;;;;2049237;28;20255;-60
2021/05/27 00:29:16;;;;;;;7.32;6.63;;;;;;;;;;2058283;28;20174;-59
2021/05/27 00:30:17;;;;;;;6.75;6.13;;;;;;;;;;2056834;28;20210;-59
2021/05/27 00:31:17;;;;;;;6.13;5.68;;;;;;;;;;2064484;28;20178;-61
2021/05/27 00:32:17;;;;;;;7.22;6.63;;;;;;;;;;2073638;28;20199;-58
2021/05/27 00:33:17;;;;;;;7.22;6.63;;;;;;;;;;2066048;28;20170;-60
2021/05/27 00:34:18;;;;;;;6.85;6.18;;;;;;;;;;2065328;28;20182;-58
2021/05/27 00:35:18;;;;;;;6.03;5.50;;;;;;;;;;2065231;28;20607;-58
2021/05/27 00:36:18;;;;;;;6.53;5.93;;;;;;;;;;2062059;28;20584;-59
2021/05/27 00:37:19;;;;;;;8.88;6.05;;;;;;;;;;2057634;28;20162;-59
2021/05/27 00:38:19;;;;;;;6.43;5.97;;;;;;;;;;2065351;28;20224;-60
2021/05/27 00:39:19;;;;;;;6.38;5.78;;;;;;;;;;2063830;28;20178;-58
2021/05/27 00:40:20;;;;;;;6.85;6.30;;;;;;;;;;2065811;28;20547;-58
2021/05/27 00:41:20;;;;;;;7.93;5.25;;;;;;;;;;2065043;28;20304;-58
2021/05/27 00:42:20;;;;;;;7.05;5.85;;;;;;;;;;2065121;28;20166;-60
2021/05/27 00:43:20;;;;;;;5.60;5.05;;;;;;;;;;2065354;28;20479;-60
2021/05/27 00:44:28;;;;;;;5.32;4.93;;;;;;;;;;2065574;28;20174;-59
2021/05/27 00:45:29;;;;;;;6.10;5.60;;;;;;;;;;2065112;28;20663;-58
2021/05/27 00:46:29;;;;;;;6.80;5.55;;;;;;;;;;2063328;28;20313;-58
2021/05/27 00:47:29;;;;;;;5.40;5.00;;;;;;;;;;2057453;28;20193;-58
2021/05/27 00:49:49;;;;;;;5.15;4.75;;;;;;;;;;2064950;28;20710;-57
2021/05/27 00:50:49;;;;;;;5.10;4.80;;;;;;;;;;2064816;28;20173;-56
2021/05/27 00:51:50;;;;;;;5.15;4.75;;;;;;;;;;2056625;28;20236;-57
2021/05/27 00:52:51;;;;;;;6.03;5.10;;;;;;;;;;2057032;28;20198;-56
2021/05/27 00:53:52;;;;;;;5.03;4.68;;;;;;;;;;2058918;28;20190;-57
2021/05/27 00:54:53;;;;;;;5.63;5.15;;;;;;;;;;2057514;28;20170;-54
2021/05/27 00:55:54;;;;;;;5.80;5.30;;;;;;;;;;2056850;28;20340;-58
2021/05/27 00:56:55;;;;;;;5.40;5.00;;;;;;;;;;2057147;28;20178;-60
2021/05/27 00:57:56;;;;;;;5.45;5.07;;;;;;;;;;2063178;28;20261;-59
2021/05/27 00:58:58;;;;;;;5.65;5.18;;;;;;;;;;2066001;28;20182;-58
2021/05/27 00:59:59;;;;;;;5.75;5.22;;;;;;;;;;2063362;28;20236;-58
2021/05/27 01:01:00;;;;;;;5.20;4.70;;;;;;;;;;2065545;28;20172;-57
2021/05/27 01:02:00;;;;;;;5.30;4.90;;;;;;;;;;2056296;28;20206;-58
2021/05/27 01:03:00;;;;;;;5.50;5.07;;;;;;;;;;2060624;28;20177;-59
2021/05/27 01:04:01;;;;;;;5.85;5.30;;;;;;;;;;2058396;28;20175;-60
2021/05/27 01:05:02;;;;;;;5.90;5.40;;;;;;;;;;2051555;28;20189;-60
2021/05/27 01:06:03;;;;;;;5.75;5.10;;;;;;;;;;2049574;28;20167;-59
2021/05/27 01:07:03;;;;;;;5.65;5.25;;;;;;;;;;2049171;28;20179;-61
2021/05/27 01:08:04;;;;;;;5.85;5.30;;;;;;;;;;2056782;28;20178;-60
2021/05/27 01:09:06;;;;;;;5.18;4.68;;;;;;;;;;2062547;28;20188;-60
2021/05/27 01:10:08;;;;;;;5.43;5.03;;;;;;;;;;2056740;28;20225;-61
2021/05/27 01:11:08;;;;;;;6.03;5.53;;;;;;;;;;2057013;28;20186;-60
2021/05/27 01:12:09;;;;;;;5.72;5.22;;;;;;;;;;2065810;28;20173;-62
2021/05/27 01:13:10;;;;;;;6.32;5.82;;;;;;;;;;2071558;28;20296;-61
2021/05/27 01:15:25;;;;;;;6.38;5.88;;;;;;;;;;2057799;28;20175;-61
2021/05/27 01:15:35;;;;;;;6.00;5.50;;;;;;;;;;2054027;28;20209;-61
2021/05/27 01:16:36;;;;;;;6.32;5.57;;;;;;;;;;2058743;28;20197;-61
2021/05/27 01:17:37;;;;;;;6.22;5.53;;;;;;;;;;2056486;28;20175;-60
2021/05/27 01:18:37;;;;;;;5.70;5.30;;;;;;;;;;2065222;28;20199;-62
2021/05/27 01:19:37;;;;;;;7.25;5.75;;;;;;;;;;2055857;28;20220;-62
2021/05/27 01:20:39;;;;;;;6.32;5.82;;;;;;;;;;2056474;28;20209;-60
2021/05/27 01:21:43;;;;;;;6.78;6.05;;;;;;;;;;2060675;28;20191;-60
2021/05/27 01:22:46;;;;;;;5.47;4.97;;;;;;;;;;2060002;28;20170;-61
2021/05/27 01:23:46;;;;;;;6.65;6.13;;;;;;;;;;2056199;28;20595;-60
2021/05/27 01:24:47;;;;;;;6.60;5.93;;;;;;;;;;2065345;28;20174;-59
2021/05/27 01:25:50;;;;;;;6.22;5.70;;;;;;;;;;2065126;28;20245;-60
2021/05/27 01:26:50;;;;;;;5.95;5.40;;;;;;;;;;2064620;28;20181;-60
2021/05/27 01:27:50;;;;;;;6.43;5.90;;;;;;;;;;2056392;28;20366;-59
2021/05/27 01:28:51;;;;;;;6.05;5.55;;;;;;;;;;2047939;28;20687;-61
2021/05/27 01:29:52;;;;;;;6.65;5.97;;;;;;;;;;2055497;28;20202;-60
2021/05/27 01:30:52;;;;;;;7.22;5.20;;;;;;;;;;2064811;28;20223;-60
2021/05/27 01:32:02;;;;;;;5.82;5.32;;;;;;;;;;2060484;28;20575;-60
2021/05/27 01:33:02;;;;;;;8.20;5.88;;;;;;;;;;2050369;28;20218;-59
2021/05/27 01:34:07;;;;;;;5.82;5.32;;;;;;;;;;2055015;28;20269;-60
2021/05/27 01:35:13;;;;;;;6.18;5.57;;;;;;;;;;2052494;28;20186;-58
2021/05/27 01:36:15;;;;;;;5.88;5.20;;;;;;;;;;2052718;28;20155;-57
2021/05/27 01:37:16;;;;;;;5.88;5.43;;;;;;;;;;2060133;28;20601;-58
2021/05/27 01:38:18;;;;;;;5.28;4.88;;;;;;;;;;2064053;28;20212;-58
2021/05/27 01:39:20;;;;;;;5.75;5.25;;;;;;;;;;2059973;28;20302;-54
2021/05/27 01:40:24;;;;;;;5.88;5.32;;;;;;;;;;2059016;28;20171;-58
2021/05/27 01:41:24;;;;;;;5.40;4.90;;;;;;;;;;2067540;28;20204;-56
2021/05/27 01:42:25;;;;;;;6.30;4.90;;;;;;;;;;2065928;28;20542;-54
2021/05/27 01:43:25;;;;;;;5.22;4.80;;;;;;;;;;2067486;28;20185;-59
2021/05/27 01:44:27;;;;;;;6.57;5.25;;;;;;;;;;2068502;28;20253;-57
2021/05/27 01:45:30;;;;;;;5.88;5.38;;;;;;;;;;2065319;28;20224;-56
2021/05/27 01:46:33;;;;;;;5.70;5.20;;;;;;;;;;2058306;28;20183;-57
2021/05/27 01:47:34;;;;;;;5.93;5.43;;;;;;;;;;2055743;28;20176;-58
2021/05/27 01:48:34;;;;;;;6.22;5.63;;;;;;;;;;2049940;28;20616;-59
2021/05/27 01:49:41;;;;;;;5.40;5.00;;;;;;;;;;2049412;28;20695;-57
2021/05/27 01:50:42;;;;;;;5.38;4.88;;;;;;;;;;2049194;28;20186;-56
2021/05/27 01:51:49;;;;;;;6.30;5.70;;;;;;;;;;2056467;28;20217;-61
2021/05/27 01:52:54;;;;;;;6.00;5.50;;;;;;;;;;2061715;28;20204;-60
2021/05/27 01:53:57;;;;;;;5.80;5.40;;;;;;;;;;2056500;28;20638;-59
2021/05/27 01:54:58;;;;;;;6.18;5.28;;;;;;;;;;2056211;28;20169;-58
2021/05/27 01:55:58;;;;;;;7.78;5.85;;;;;;;;;;2064905;28;20192;-59
2021/05/27 01:56:59;;;;;;;6.70;6.10;;;;;;;;;;2064758;28;20186;-58
2021/05/27 01:58:01;;;;;;;6.07;5.47;;;;;;;;;;2067381;28;20184;-58
2021/05/27 01:59:04;;;;;;;6.47;5.88;;;;;;;;;;2065421;28;20173;-60
2021/05/27 02:00:06;;;;;;;5.65;5.15;;;;;;;;;;2059723;28;20212;-60
2021/05/27 02:01:14;;;;;;;7.15;6.35;;;;;;;;;;2049294;28;20210;-60
2021/05/27 02:02:16;;;;;;;6.43;5.93;;;;;;;;;;2049572;28;20602;-60
2021/05/27 02:03:18;;;;;;;6.85;6.20;;;;;;;;;;2056562;28;20178;-59
2021/05/27 02:04:24;;;;;;;6.80;6.13;;;;;;;;;;2055611;28;20185;-59
2021/05/27 02:05:25;;;;;;;8.68;6.45;;;;;;;;;;2058943;28;20313;-59
2021/05/27 02:06:25;;;;;;;6.03;5.45;;;;;;;;;;2056147;28;20213;-58
2021/05/27 02:07:29;;;;;;;6.13;5.57;;;;;;;;;;2058213;28;20181;-60
2021/05/27 02:08:30;;;;;;;6.18;5.63;;;;;;;;;;2055896;28;20569;-60
2021/05/27 02:09:34;;;;;;;6.10;5.63;;;;;;;;;;2056179;28;20252;-59
2021/05/27 02:10:37;;;;;;;6.28;5.70;;;;;;;;;;2061286;28;20182;-57
2021/05/27 02:11:42;;;;;;;5.85;5.35;;;;;;;;;;2056502;28;20682;-58
2021/05/27 02:12:43;;;;;;;5.32;5.03;;;;;;;;;;2056428;28;20170;-59
2021/05/27 02:13:44;;;;;;;6.75;5.38;;;;;;;;;;2056118;28;20677;-59
2021/05/27 02:14:45;;;;;;;5.78;5.32;;;;;;;;;;2056426;28;20646;-58
2021/05/27 02:15:45;;;;;;;5.90;5.40;;;;;;;;;;2048240;29;20175;-59
2021/05/27 02:16:46;;;;;;;7.75;5.55;;;;;;;;;;2056413;28;20189;-61
2021/05/27 02:17:47;;;;;;;5.95;5.45;;;;;;;;;;2064741;28;20188;-59
2021/05/27 02:18:47;;;;;;;6.30;5.80;;;;;;;;;;2064139;28;20194;-60
2021/05/27 02:19:47;;;;;;;5.43;5.03;;;;;;;;;;2065126;28;20213;-58
2021/05/27 02:20:49;;;;;;;6.07;5.55;;;;;;;;;;2065859;28;20604;-58
2021/05/27 02:21:51;;;;;;;5.70;5.30;;;;;;;;;;2059943;28;20201;-61
2021/05/27 02:23:01;;;;;;;5.03;4.68;;;;;;;;;;2051279;28;20564;-61
2021/05/27 02:24:13;;;;;;;5.25;4.85;;;;;;;;;;2058454;28;20213;-60
2021/05/27 02:25:14;;;;;;;5.57;5.07;;;;;;;;;;2063741;28;20161;-60
2021/05/27 02:26:18;;;;;;;6.03;5.55;;;;;;;;;;2048857;28;20578;-60
2021/05/27 02:27:24;;;;;;;6.70;5.63;;;;;;;;;;2059800;28;20232;-60
2021/05/27 02:28:25;;;;;;;6.70;6.10;;;;;;;;;;2063288;28;20616;-59
2021/05/27 02:29:25;;;;;;;7.10;6.50;;;;;;;;;;2055762;28;20174;-61
2021/05/27 02:30:29;;;;;;;5.85;5.43;;;;;;;;;;2065051;28;20196;-60
2021/05/27 02:31:31;;;;;;;7.35;6.03;;;;;;;;;;2064109;28;20228;-60
2021/05/27 02:32:31;;;;;;;6.25;5.75;;;;;;;;;;2053897;28;20264;-59
2021/05/27 02:33:34;;;;;;;6.70;6.10;;;;;;;;;;2053914;28;20178;-60
2021/05/27 02:34:40;;;;;;;6.43;5.93;;;;;;;;;;2043133;29;20182;-61
2021/05/27 02:35:42;;;;;;;5.95;5.43;;;;;;;;;;2048838;28;20193;-61
2021/05/27 02:36:43;;;;;;;6.00;5.47;;;;;;;;;;2064132;28;20196;-59
2021/05/27 02:37:46;;;;;;;6.15;5.55;;;;;;;;;;2063545;28;20221;-60
2021/05/27 02:38:47;;;;;;;7.45;6.00;;;;;;;;;;2059857;28;20182;-61
2021/05/27 02:39:52;;;;;;;9.25;6.32;;;;;;;;;;2048594;28;20643;-60
2021/05/27 02:40:55;;;;;;;7.15;6.40;;;;;;;;;;2051322;28;20205;-61
2021/05/27 02:42:00;;;;;;;7.15;6.50;;;;;;;;;;2054216;28;20738;-60
2021/05/27 02:43:02;;;;;;;7.63;6.93;;;;;;;;;;2063334;28;20178;-60
2021/05/27 02:44:05;;;;;;;9.20;6.57;;;;;;;;;;2065292;28;20185;-62
2021/05/27 02:45:12;;;;;;;6.53;5.95;;;;;;;;;;2056369;28;20233;-61
2021/05/27 02:46:18;;;;;;;5.93;5.50;;;;;;;;;;2047574;28;20762;-61
2021/05/27 02:47:25;;;;;;;7.07;6.18;;;;;;;;;;2056678;28;20615;-62
2021/05/27 02:48:26;;;;;;;6.95;6.30;;;;;;;;;;2066622;28;20192;-61
2021/05/27 02:49:27;;;;;;;6.75;6.15;;;;;;;;;;2055499;28;20205;-61
2021/05/27 02:50:31;;;;;;;8.98;6.22;;;;;;;;;;2056418;28;20182;-62
2021/05/27 02:51:32;;;;;;;7.25;6.60;;;;;;;;;;2062313;28;20179;-61
2021/05/27 02:52:33;;;;;;;7.47;6.88;;;;;;;;;;2047723;28;20191;-60
2021/05/27 02:53:33;;;;;;;8.52;7.53;;;;;;;;;;2054559;28;20580;-60
2021/05/27 02:54:33;;;;;;;8.02;7.22;;;;;;;;;;2046692;29;20371;-61
2021/05/27 02:55:34;;;;;;;7.00;6.13;;;;;;;;;;2042824;29;20176;-58
2021/05/27 02:56:34;;;;;;;8.10;6.97;;;;;;;;;;2064611;28;20184;-59
2021/05/27 02:57:36;;;;;;;8.27;7.53;;;;;;;;;;2063551;28;20186;-56
2021/05/27 02:58:36;;;;;;;6.10;5.60;;;;;;;;;;2053104;28;20183;-59
2021/05/27 02:59:37;;;;;;;7.15;6.50;;;;;;;;;;2052676;28;20201;-58
2021/05/27 03:00:39;;;;;;;7.10;6.50;;;;;;;;;;2052730;28;20311;-58
2021/05/27 03:01:51;;;;;;;7.15;6.60;;;;;;;;;;2045628;28;20210;-56
2021/05/27 03:02:52;;;;;;;7.45;6.85;;;;;;;;;;2056782;28;20232;-59
2021/05/27 03:03:53;;;;;;;8.93;8.13;;;;;;;;;;2047342;29;20179;-59
2021/05/27 03:04:54;;;;;;;7.15;6.45;;;;;;;;;;2049672;28;20201;-59
2021/05/27 03:05:54;;;;;;;8.18;7.57;;;;;;;;;;2066618;28;20178;-58
2021/05/27 03:06:57;;;;;;;8.25;7.47;;;;;;;;;;2063975;28;20177;-61
2021/05/27 03:07:57;;;;;;;7.75;7.05;;;;;;;;;;2064776;28;20674;-60
2021/05/27 03:08:57;;;;;;;7.75;7.05;;;;;;;;;;2064822;28;20193;-60
2021/05/27 03:09:58;;;;;;;7.00;6.40;;;;;;;;;;2056287;28;20190;-59
2021/05/27 03:10:58;;;;;;;7.38;6.75;;;;;;;;;;2049023;28;20187;-61
2021/05/27 03:12:01;;;;;;;6.70;6.10;;;;;;;;;;2050343;28;20738;-60
2021/05/27 03:13:04;;;;;;;6.57;5.95;;;;;;;;;;2056210;28;20210;-61
2021/05/27 03:14:04;;;;;;;6.90;6.22;;;;;;;;;;2063818;28;20205;-58
2021/05/27 03:15:18;;;;;;;7.32;6.63;;;;;;;;;;2056931;28;20173;-57
2021/05/27 03:16:20;;;;;;;7.20;6.50;;;;;;;;;;2063634;28;20174;-60
2021/05/27 03:17:21;;;;;;;8.02;7.28;;;;;;;;;;2064014;28;20188;-58
2021/05/27 03:18:21;;;;;;;9.55;6.82;;;;;;;;;;2055777;28;20170;-57
2021/05/27 03:19:22;;;;;;;7.50;6.80;;;;;;;;;;2061957;28;20310;-60
2021/05/27 03:20:23;;;;;;;8.77;6.38;;;;;;;;;;2083458;23;20323;-60
2021/05/27 03:21:23;;;;;;;6.75;6.00;;;;;;;;;;2063006;28;20217;-59
2021/05/27 03:22:25;;;;;;;8.43;7.05;;;;;;;;;;2047906;29;20179;-57
2021/05/27 03:23:26;;;;;;;6.82;6.22;;;;;;;;;;2040273;28;20679;-56
2021/05/27 03:24:26;;;;;;;7.38;6.68;;;;;;;;;;2044588;28;20286;-60
2021/05/27 03:25:26;;;;;;;7.70;6.93;;;;;;;;;;2055802;28;20174;-59
2021/05/27 03:26:27;;;;;;;7.65;6.95;;;;;;;;;;2055586;28;20242;-59
2021/05/27 03:27:28;;;;;;;7.20;6.53;;;;;;;;;;2056205;28;20265;-60
2021/05/27 03:28:30;;;;;;;7.25;6.55;;;;;;;;;;2045307;28;20644;-60
2021/05/27 03:29:37;;;;;;;7.22;6.53;;;;;;;;;;2055973;28;20205;-60
2021/05/27 03:30:38;;;;;;;7.70;6.85;;;;;;;;;;2058251;28;20220;-59
2021/05/27 03:31:42;;;;;;;7.18;6.47;;;;;;;;;;2048690;28;20205;-59
2021/05/27 03:32:42;;;;;;;7.68;6.13;;;;;;;;;;2056334;28;20178;-59
2021/05/27 03:33:42;;;;;;;7.57;6.85;;;;;;;;;;2066429;28;20169;-59
2021/05/27 03:34:43;;;;;;;7.35;6.70;;;;;;;;;;2072212;28;20267;-59
2021/05/27 03:35:43;;;;;;;6.07;5.50;;;;;;;;;;2064701;28;20207;-57
2021/05/27 03:36:44;;;;;;;7.55;6.85;;;;;;;;;;2056754;28;20167;-59
2021/05/27 03:37:49;;;;;;;12.52;6.68;;;;;;;;;;2061421;28;20185;-60
2021/05/27 03:38:54;;;;;;;7.03;6.32;;;;;;;;;;2055742;28;20681;-58
2021/05/27 03:41:12;;;;;;;7.03;6.43;;;;;;;;;;2061561;28;20184;-60
2021/05/27 03:42:14;;;;;;;8.63;6.13;;;;;;;;;;2055448;28;20627;-61
2021/05/27 03:43:14;;;;;;;7.05;6.38;;;;;;;;;;2049716;28;20178;-58
2021/05/27 03:44:17;;;;;;;7.30;6.60;;;;;;;;;;2065238;28;20166;-58
2021/05/27 03:45:20;;;;;;;7.38;6.20;;;;;;;;;;2074902;28;20175;-58
2021/05/27 03:46:35;;;;;;;7.50;6.70;;;;;;;;;;2074904;28;20200;-57
2021/05/27 03:47:37;;;;;;;6.60;6.00;;;;;;;;;;2074727;28;20165;-58
2021/05/27 03:48:38;;;;;;;6.10;5.50;;;;;;;;;;2065953;28;20356;-59
2021/05/27 03:49:39;;;;;;;8.73;6.95;;;;;;;;;;2060065;28;20205;-58
2021/05/27 03:50:43;;;;;;;7.22;6.40;;;;;;;;;;2059247;28;20202;-55
2021/05/27 03:51:48;;;;;;;7.25;6.57;;;;;;;;;;2050800;28;20178;-58
2021/05/27 03:52:49;;;;;;;6.70;6.20;;;;;;;;;;2060991;28;20166;-58
2021/05/27 03:53:50;;;;;;;7.32;6.68;;;;;;;;;;2065685;28;20722;-59
2021/05/27 03:54:50;;;;;;;7.18;6.55;;;;;;;;;;2064884;28;20178;-62
2021/05/27 03:55:50;;;;;;;8.20;7.45;;;;;;;;;;2056885;28;20218;-58
2021/05/27 03:56:51;;;;;;;6.68;6.13;;;;;;;;;;2063276;28;20697;-56
2021/05/27 03:57:53;;;;;;;7.00;6.40;;;;;;;;;;2058526;28;20177;-59
2021/05/27 04:00:46;;;;;;;6.22;5.65;;;;;;;;;;2059711;28;20297;-58
2021/05/27 04:02:07;;;;;;;6.75;6.15;;;;;;;;;;2071136;28;20235;-58
2021/05/27 04:07:08;;;;;;;7.28;5.50;;;;;;;;;;2073636;28;20204;-58
2021/05/27 04:07:47;;;;;;;5.43;4.95;;;;;;;;;;2049452;28;20191;-59
2021/05/27 04:08:47;;;;;;;6.40;5.90;;;;;;;;;;2048125;28;20218;-60
2021/05/27 04:09:48;;;;;;;7.40;6.50;;;;;;;;;;2059549;28;20167;-59
2021/05/27 04:10:48;;;;;;;6.47;5.63;;;;;;;;;;2058808;28;20926;-58
2021/05/27 04:11:48;;;;;;;6.43;5.82;;;;;;;;;;2058054;28;20229;-61
2021/05/27 04:12:49;;;;;;;6.55;5.95;;;;;;;;;;2067657;28;20669;-61
2021/05/27 04:13:49;;;;;;;6.90;6.28;;;;;;;;;;2067121;28;20678;-60
2021/05/27 04:16:09;;;;;;;6.00;5.50;;;;;;;;;;2052019;28;20206;-58
2021/05/27 04:17:09;;;;;;;5.78;5.28;;;;;;;;;;2061004;28;20182;-58
2021/05/27 04:18:12;;;;;;;5.10;4.50;;;;;;;;;;2057484;28;20198;-60
2021/05/27 04:19:13;;;;;;;5.63;5.13;;;;;;;;;;2059763;28;20753;-56
2021/05/27 04:20:13;;;;;;;5.55;5.05;;;;;;;;;;2057925;28;20233;-57
2021/05/27 04:21:14;;;;;;;5.40;4.90;;;;;;;;;;2057511;28;20182;-59
2021/05/27 04:22:14;;;;;;;5.63;5.13;;;;;;;;;;2066452;28;20169;-58
2021/05/27 04:23:33;;;;;;;4.88;4.47;;;;;;;;;;2065775;28;20170;-58
2021/05/27 04:24:33;;;;;;;5.82;5.32;;;;;;;;;;2056273;28;20847;-59
2021/05/27 04:25:34;;;;;;;5.32;4.88;;;;;;;;;;2053246;28;20181;-58
2021/05/27 04:26:34;;;;;;;5.47;5.00;;;;;;;;;;2068907;28;20186;-58
2021/05/27 04:27:35;;;;;;;4.97;4.68;;;;;;;;;;2075232;28;20212;-59
2021/05/27 04:28:36;;;;;;;5.60;5.10;;;;;;;;;;2071846;28;20200;-58
2021/05/27 04:29:37;;;;;;;5.15;4.72;;;;;;;;;;2069332;28;20182;-58
2021/05/27 04:31:56;;;;;;;7.47;5.00;;;;;;;;;;2065535;28;20236;-58
2021/05/27 04:34:02;;;;;;;5.53;3.67;;;;;;;;;;2067588;28;20166;-60
2021/05/27 04:35:03;;;;;;;4.80;4.40;;;;;;;;;;2063789;28;20209;-59
2021/05/27 04:36:06;;;;;;;4.95;4.55;;;;;;;;;;2058001;28;20261;-58
2021/05/27 04:37:06;;;;;;;4.35;4.05;;;;;;;;;;2050634;28;20183;-60
2021/05/27 04:38:10;;;;;;;5.20;4.70;;;;;;;;;;2048744;29;20190;-59
2021/05/27 04:39:11;;;;;;;5.32;4.82;;;;;;;;;;2051867;28;20242;-58
2021/05/27 04:40:11;;;;;;;5.28;4.80;;;;;;;;;;2058160;28;20182;-61
2021/05/27 04:41:12;;;;;;;5.80;5.30;;;;;;;;;;2058217;28;20177;-59
2021/05/27 04:42:12;;;;;;;5.10;4.70;;;;;;;;;;2058432;28;20659;-60
2021/05/27 04:43:16;;;;;;;5.50;5.00;;;;;;;;;;2062512;28;20174;-60
2021/05/27 04:44:17;;;;;;;4.57;4.20;;;;;;;;;;2058081;28;20177;-58
2021/05/27 04:45:17;;;;;;;5.22;4.72;;;;;;;;;;2057611;28;20217;-58
2021/05/27 04:46:17;;;;;;;5.05;4.65;;;;;;;;;;2054346;28;20206;-59
2021/05/27 04:47:17;;;;;;;4.82;4.47;;;;;;;;;;2057061;28;20167;-60
2021/05/27 04:48:18;;;;;;;5.95;5.40;;;;;;;;;;2065863;28;20598;-59
2021/05/27 04:49:18;;;;;;;5.82;5.32;;;;;;;;;;2056808;28;20650;-60
2021/05/27 04:50:18;;;;;;;6.00;5.38;;;;;;;;;;2057422;28;20577;-60
2021/05/27 04:51:19;;;;;;;5.82;5.32;;;;;;;;;;2062495;28;20237;-60
2021/05/27 04:52:19;;;;;;;5.72;5.15;;;;;;;;;;2057096;28;20175;-59
2021/05/27 04:53:20;;;;;;;6.38;5.85;;;;;;;;;;2065224;28;20563;-59
2021/05/27 04:54:20;;;;;;;9.07;5.68;;;;;;;;;;2065578;28;20272;-60
2021/05/27 04:55:21;;;;;;;9.07;6.15;;;;;;;;;;2063973;28;20169;-60
2021/05/27 04:56:22;;;;;;;6.40;5.75;;;;;;;;;;2056086;28;20171;-61
2021/05/27 04:57:22;;;;;;;7.32;6.40;;;;;;;;;;2064515;28;20256;-60
2021/05/27 04:58:22;;;;;;;6.20;5.70;;;;;;;;;;2049395;28;20186;-59
2021/05/27 04:59:23;;;;;;;7.93;6.40;;;;;;;;;;2057680;28;20214;-59
2021/05/27 05:00:24;;;;;;;7.40;6.10;;;;;;;;;;2066681;28;20275;-62
2021/05/27 05:01:26;;;;;;;7.22;6.55;;;;;;;;;;2068356;28;20177;-61
2021/05/27 05:02:26;;;;;;;8.45;7.65;;;;;;;;;;2066719;28;20197;-60
2021/05/27 05:03:27;;;;;;;6.95;6.22;;;;;;;;;;2065590;28;20623;-59
2021/05/27 05:04:27;;;;;;;7.97;6.75;;;;;;;;;;2066047;28;20188;-62
2021/05/27 05:05:28;;;;;;;8.35;7.45;;;;;;;;;;2070441;28;20213;-59
2021/05/27 05:06:28;;;;;;;7.45;6.30;;;;;;;;;;2056814;28;20254;-59
2021/05/27 05:07:28;;;;;;;8.13;7.22;;;;;;;;;;2056711;28;20186;-59
2021/05/27 05:08:29;;;;;;;7.00;6.40;;;;;;;;;;2056960;28;20697;-59
2021/05/27 05:09:29;;;;;;;7.47;6.72;;;;;;;;;;2067685;28;20228;-61
2021/05/27 05:10:30;;;;;;;7.57;6.78;;;;;;;;;;2067105;28;20201;-60
2021/05/27 05:11:30;;;;;;;8.82;6.90;;;;;;;;;;2067145;28;20217;-59
2021/05/27 05:12:44;;;;;;;6.85;5.88;;;;;;;;;;2065137;28;20569;-59
2021/05/27 05:13:44;;;;;;;7.60;6.90;;;;;;;;;;2067814;28;20158;-59
2021/05/27 05:14:44;;;;;;;9.70;8.77;;;;;;;;;;2067445;28;20256;-60
2021/05/27 05:15:44;;;;;;;12.77;6.63;;;;;;;;;;2064929;28;20177;-60
2021/05/27 05:16:45;;;;;;;9.15;7.75;;;;;;;;;;2069230;28;20190;-60
2021/05/27 05:17:49;;;;;;;8.27;7.47;;;;;;;;;;2065486;28;20165;-58
2021/05/27 05:18:50;;;;;;;8.52;7.75;;;;;;;;;;2055386;28;20734;-59
2021/05/27 05:19:50;;;;;;;11.77;7.93;;;;;;;;;;2057262;28;20182;-58
2021/05/27 05:20:50;;;;;;;9.00;7.93;;;;;;;;;;2059725;28;20587;-60
2021/05/27 05:21:51;;;;;;;9.70;7.47;;;;;;;;;;2048590;28;20282;-59
2021/05/27 05:22:51;;;;;;;9.18;8.07;;;;;;;;;;2056882;28;20170;-59
2021/05/27 05:23:51;;;;;;;10.57;7.93;;;;;;;;;;2064893;28;20162;-59
2021/05/27 05:24:52;;;;;;;8.23;7.03;;;;;;;;;;2067379;28;20230;-57
2021/05/27 05:25:52;;;;;;;8.75;7.25;;;;;;;;;;2056978;28;20166;-56
2021/05/27 05:26:52;;;;;;;8.00;6.75;;;;;;;;;;2057293;28;20186;-58
2021/05/27 05:27:53;;;;;;;10.95;7.53;;;;;;;;;;2065576;28;20173;-59
2021/05/27 05:28:53;;;;;;;9.77;7.93;;;;;;;;;;2065062;28;20252;-59
2021/05/27 05:29:53;;;;;;;9.45;7.85;;;;;;;;;;2065416;28;20193;-58
2021/05/27 05:30:53;;;;;;;8.02;7.22;;;;;;;;;;2065699;28;20696;-59
2021/05/27 05:31:54;;;;;;;8.00;6.93;;;;;;;;;;2059865;28;20277;-61
2021/05/27 05:32:54;;;;;;;7.80;7.00;;;;;;;;;;2057233;28;20252;-58
2021/05/27 05:33:55;;;;;;;8.20;7.32;;;;;;;;;;2065492;28;20180;-61
2021/05/27 05:34:56;;;;;;;10.30;7.13;;;;;;;;;;2064478;28;20820;-58
2021/05/27 05:35:56;;;;;;;12.35;8.00;;;;;;;;;;2064985;28;20174;-60
2021/05/27 05:36:56;;;;;;;8.45;7.53;;;;;;;;;;2066847;28;20557;-62
2021/05/27 05:37:57;;;;;;;8.27;7.35;;;;;;;;;;2060038;28;20236;-59
2021/05/27 05:38:57;;;;;;;10.88;8.45;;;;;;;;;;2051937;28;20687;-61
2021/05/27 05:39:57;;;;;;;11.85;8.27;;;;;;;;;;2061472;28;20197;-61
2021/05/27 05:40:58;;;;;;;8.27;7.45;;;;;;;;;;2065311;28;20166;-60
2021/05/27 05:41:58;;;;;;;10.07;7.60;;;;;;;;;;2058778;28;20241;-56
2021/05/27 05:42:58;;;;;;;8.82;6.70;;;;;;;;;;2065509;28;20169;-58
2021/05/27 05:43:59;;;;;;;7.35;6.65;;;;;;;;;;2070831;28;20774;-60
2021/05/27 05:44:59;;;;;;;7.93;6.63;;;;;;;;;;2067899;28;20186;-58
2021/05/27 05:45:59;;;;;;;7.72;6.35;;;;;;;;;;2068993;28;20252;-60
2021/05/27 05:47:00;;;;;;;7.25;6.45;;;;;;;;;;2069327;28;20189;-63
2021/05/27 05:48:00;;;;;;;6.65;5.63;;;;;;;;;;2068566;28;20196;-60
2021/05/27 05:49:01;;;;;;;9.30;5.65;;;;;;;;;;2060073;28;20169;-57
2021/05/27 05:50:02;;;;;;;9.05;6.25;;;;;;;;;;2067337;28;20170;-59
2021/05/27 05:51:04;;;;;;;6.22;5.60;;;;;;;;;;2071748;28;20280;-59
2021/05/27 05:52:05;;;;;;;6.97;6.28;;;;;;;;;;2071153;28;20169;-60
2021/05/27 05:53:05;;;;;;;7.07;6.45;;;;;;;;;;2071161;28;20177;-56
2021/05/27 05:54:06;;;;;;;7.60;6.90;;;;;;;;;;2072214;28;20216;-59
2021/05/27 05:55:06;;;;;;;9.90;6.90;;;;;;;;;;2070825;28;20178;-59
2021/05/27 05:56:07;;;;;;;9.18;7.03;;;;;;;;;;2069323;28;20189;-60
2021/05/27 05:57:07;;;;;;;8.35;7.47;;;;;;;;;;2073336;28;20177;-59
2021/05/27 05:58:07;;;;;;;9.98;7.68;;;;;;;;;;2068702;28;20224;-59
2021/05/27 05:59:08;;;;;;;7.30;6.60;;;;;;;;;;2068814;28;20209;-58
2021/05/27 06:00:08;;;;;;;9.20;8.07;;;;;;;;;;2068153;28;20178;-60
2021/05/27 06:01:13;;;;;;;10.88;7.75;;;;;;;;;;2067945;28;20181;-60
2021/05/27 06:02:14;;;;;;;7.68;6.10;;;;;;;;;;2071681;28;20165;-58
2021/05/27 06:03:15;;;;;;;7.40;6.75;;;;;;;;;;2060501;28;20174;-56
2021/05/27 06:04:33;;;;;;;7.22;6.63;;;;;;;;;;2054511;28;20175;-56
2021/05/27 06:05:48;;;;;;;7.57;6.88;;;;;;;;;;2057768;28;20730;-57
2021/05/27 06:07:03;;;;;;;8.13;6.47;;;;;;;;;;2052718;28;20678;-55
2021/05/27 06:08:03;;;;;;;6.82;6.13;;;;;;;;;;2053649;29;20221;-58
2021/05/27 06:09:04;;;;;;;8.85;7.03;;;;;;;;;;2056444;28;20178;-53
2021/05/27 06:10:04;;;;;;;13.02;7.00;;;;;;;;;;2067318;28;20204;-59
2021/05/27 06:11:05;;;;;;;7.25;6.55;;;;;;;;;;2068436;28;20229;-57
2021/05/27 06:12:05;;;;;;;9.02;7.10;;;;;;;;;;2069026;28;20180;-54
2021/05/27 06:13:05;;;;;;;7.35;6.60;;;;;;;;;;2067930;28;20192;-55
2021/05/27 06:14:06;;;;;;;7.50;6.80;;;;;;;;;;2066004;28;20173;-56
2021/05/27 06:15:07;;;;;;;7.72;5.97;;;;;;;;;;2064272;28;20177;-58
2021/05/27 06:16:08;;;;;;;7.53;6.25;;;;;;;;;;2065646;28;20184;-54
2021/05/27 06:17:08;;;;;;;7.03;6.10;;;;;;;;;;2065768;28;20193;-54
2021/05/27 06:18:09;;;;;;;6.93;5.75;;;;;;;;;;2065400;28;20174;-56
2021/05/27 06:19:13;;;;;;;6.70;6.10;;;;;;;;;;2063344;28;20201;-57
2021/05/27 06:20:33;;;;;;;7.00;6.30;;;;;;;;;;2052898;28;20218;-58
2021/05/27 06:21:39;;;;;;;6.00;5.32;;;;;;;;;;2050581;28;20198;-58